sensor_id;sensor_type;location;lat;lon;timestamp;P1;durP1;ratioP1;P2;durP2;ratioP2
18425;SDS011;9340;48.756;9.226;2023-04-25T00:00:35;3.10;;;2.77;;
18425;SDS011;9340;48.756;9.226;2023-04-25T00:03:01;2.30;;;2.20;;
18425;SDS011;9340;48.756;9.226;2023-04-25T00:05:30;2.40;;;2.20;;
18425;SDS011;9340;48.756;9.226;2023-04-25T00:07:58;2.60;;;2.40;;
18425;SDS011;9340;48.756;9.226;2023-04-25T00:10:25;3.60;;;2.53;;
18425;SDS011;9340;48.756;9.226;2023-04-25T00:12:51;2.80;;;2.60;;
18425;SDS011;9340;48.756;9.226;2023-04-25T00:15:18;4.17;;;2.33;;
18425;SDS011;9340;48.756;9.226;2023-04-25T00:17:45;2.60;;;2.23;;
18425;SDS011;9340;48.756;9.226;2023-04-25T00:20:12;2.60;;;2.40;;
18425;SDS011;9340;48.756;9.226;2023-04-25T00:22:39;3.77;;;2.83;;
18425;SDS011;9340;48.756;9.226;2023-04-25T00:25:07;2.47;;;2.27;;
18425;SDS011;9340;48.756;9.226;2023-04-25T00:27:34;2.97;;;2.60;;
18425;SDS011;9340;48.756;9.226;2023-04-25T00:30:01;2.90;;;2.70;;
18425;SDS011;9340;48.756;9.226;2023-04-25T00:32:28;3.23;;;2.93;;
18425;SDS011;9340;48.756;9.226;2023-04-25T00:34:55;3.93;;;3.20;;
18425;SDS011;9340;48.756;9.226;2023-04-25T00:37:22;2.80;;;2.60;;
18425;SDS011;9340;48.756;9.226;2023-04-25T00:39:49;3.10;;;2.80;;
18425;SDS011;9340;48.756;9.226;2023-04-25T00:42:19;3.40;;;2.60;;
18425;SDS011;9340;48.756;9.226;2023-04-25T00:44:46;6.63;;;2.80;;
18425;SDS011;9340;48.756;9.226;2023-04-25T00:47:14;3.10;;;2.90;;
18425;SDS011;9340;48.756;9.226;2023-04-25T00:49:41;3.40;;;2.60;;
18425;SDS011;9340;48.756;9.226;2023-04-25T00:52:08;3.77;;;3.00;;
18425;SDS011;9340;48.756;9.226;2023-04-25T00:54:35;2.97;;;2.77;;
18425;SDS011;9340;48.756;9.226;2023-04-25T00:57:02;2.70;;;2.50;;
18425;SDS011;9340;48.756;9.226;2023-04-25T00:59:30;2.80;;;2.57;;
18425;SDS011;9340;48.756;9.226;2023-04-25T01:01:57;2.60;;;2.40;;
18425;SDS011;9340;48.756;9.226;2023-04-25T01:04:25;2.53;;;2.10;;
18425;SDS011;9340;48.756;9.226;2023-04-25T01:06:55;2.63;;;2.43;;
18425;SDS011;9340;48.756;9.226;2023-04-25T01:09:22;2.60;;;2.40;;
18425;SDS011;9340;48.756;9.226;2023-04-25T01:11:48;4.20;;;2.30;;
18425;SDS011;9340;48.756;9.226;2023-04-25T01:14:15;2.30;;;2.10;;
18425;SDS011;9340;48.756;9.226;2023-04-25T01:16:44;2.43;;;2.20;;
18425;SDS011;9340;48.756;9.226;2023-04-25T01:19:11;4.80;;;2.77;;
18425;SDS011;9340;48.756;9.226;2023-04-25T01:21:39;3.00;;;2.40;;
18425;SDS011;9340;48.756;9.226;2023-04-25T01:24:06;3.13;;;2.23;;
18425;SDS011;9340;48.756;9.226;2023-04-25T01:26:33;2.60;;;2.40;;
18425;SDS011;9340;48.756;9.226;2023-04-25T01:29:01;2.73;;;2.10;;
18425;SDS011;9340;48.756;9.226;2023-04-25T01:31:30;2.70;;;2.50;;
18425;SDS011;9340;48.756;9.226;2023-04-25T01:33:58;2.73;;;2.50;;
18425;SDS011;9340;48.756;9.226;2023-04-25T01:36:25;3.07;;;2.60;;
18425;SDS011;9340;48.756;9.226;2023-04-25T01:38:53;4.07;;;2.50;;
18425;SDS011;9340;48.756;9.226;2023-04-25T01:41:20;2.43;;;2.20;;
18425;SDS011;9340;48.756;9.226;2023-04-25T01:43:48;2.70;;;2.50;;
18425;SDS011;9340;48.756;9.226;2023-04-25T01:46:15;2.43;;;2.23;;
18425;SDS011;9340;48.756;9.226;2023-04-25T01:48:42;2.73;;;2.30;;
18425;SDS011;9340;48.756;9.226;2023-04-25T01:51:08;2.90;;;2.50;;
18425;SDS011;9340;48.756;9.226;2023-04-25T01:53:36;4.23;;;3.10;;
18425;SDS011;9340;48.756;9.226;2023-04-25T01:56:05;3.53;;;3.20;;
18425;SDS011;9340;48.756;9.226;2023-04-25T01:58:32;4.13;;;3.40;;
18425;SDS011;9340;48.756;9.226;2023-04-25T02:00:59;2.77;;;2.47;;
18425;SDS011;9340;48.756;9.226;2023-04-25T02:03:25;2.27;;;2.07;;
18425;SDS011;9340;48.756;9.226;2023-04-25T02:05:52;2.87;;;2.30;;
18425;SDS011;9340;48.756;9.226;2023-04-25T02:08:19;3.43;;;3.10;;
18425;SDS011;9340;48.756;9.226;2023-04-25T02:10:45;3.17;;;2.60;;
18425;SDS011;9340;48.756;9.226;2023-04-25T02:13:13;3.43;;;2.90;;
18425;SDS011;9340;48.756;9.226;2023-04-25T02:15:40;3.90;;;2.70;;
18425;SDS011;9340;48.756;9.226;2023-04-25T02:18:07;3.43;;;3.13;;
18425;SDS011;9340;48.756;9.226;2023-04-25T02:20:35;3.20;;;2.80;;
18425;SDS011;9340;48.756;9.226;2023-04-25T02:23:02;4.67;;;2.77;;
18425;SDS011;9340;48.756;9.226;2023-04-25T02:25:29;3.93;;;2.70;;
18425;SDS011;9340;48.756;9.226;2023-04-25T02:27:55;3.80;;;2.57;;
18425;SDS011;9340;48.756;9.226;2023-04-25T02:30:23;3.27;;;2.87;;
18425;SDS011;9340;48.756;9.226;2023-04-25T02:32:50;4.60;;;2.57;;
18425;SDS011;9340;48.756;9.226;2023-04-25T02:35:17;3.93;;;2.77;;
18425;SDS011;9340;48.756;9.226;2023-04-25T02:37:44;2.80;;;2.60;;
18425;SDS011;9340;48.756;9.226;2023-04-25T02:40:11;3.83;;;3.13;;
18425;SDS011;9340;48.756;9.226;2023-04-25T02:42:38;4.73;;;2.97;;
18425;SDS011;9340;48.756;9.226;2023-04-25T02:45:05;3.60;;;3.30;;
18425;SDS011;9340;48.756;9.226;2023-04-25T02:47:33;3.33;;;3.00;;
18425;SDS011;9340;48.756;9.226;2023-04-25T02:50:00;3.93;;;2.90;;
18425;SDS011;9340;48.756;9.226;2023-04-25T02:52:27;3.67;;;3.00;;
18425;SDS011;9340;48.756;9.226;2023-04-25T02:54:53;3.17;;;2.63;;
18425;SDS011;9340;48.756;9.226;2023-04-25T02:57:20;4.83;;;2.50;;
18425;SDS011;9340;48.756;9.226;2023-04-25T02:59:47;2.70;;;2.50;;
18425;SDS011;9340;48.756;9.226;2023-04-25T03:02:13;2.83;;;2.63;;
18425;SDS011;9340;48.756;9.226;2023-04-25T03:04:42;3.47;;;2.97;;
18425;SDS011;9340;48.756;9.226;2023-04-25T03:07:09;3.27;;;2.77;;
18425;SDS011;9340;48.756;9.226;2023-04-25T03:09:36;3.07;;;2.77;;
18425;SDS011;9340;48.756;9.226;2023-04-25T03:12:03;3.40;;;2.80;;
18425;SDS011;9340;48.756;9.226;2023-04-25T03:14:30;2.97;;;2.70;;
18425;SDS011;9340;48.756;9.226;2023-04-25T03:16:57;4.50;;;2.63;;
18425;SDS011;9340;48.756;9.226;2023-04-25T03:19:23;2.77;;;2.33;;
18425;SDS011;9340;48.756;9.226;2023-04-25T03:21:51;2.77;;;2.57;;
18425;SDS011;9340;48.756;9.226;2023-04-25T03:24:18;2.67;;;2.47;;
18425;SDS011;9340;48.756;9.226;2023-04-25T03:26:45;4.73;;;3.10;;
18425;SDS011;9340;48.756;9.226;2023-04-25T03:29:12;2.50;;;2.30;;
18425;SDS011;9340;48.756;9.226;2023-04-25T03:31:38;4.93;;;2.60;;
18425;SDS011;9340;48.756;9.226;2023-04-25T03:34:05;4.20;;;2.50;;
18425;SDS011;9340;48.756;9.226;2023-04-25T03:36:32;5.73;;;3.00;;
18425;SDS011;9340;48.756;9.226;2023-04-25T03:39:00;4.53;;;2.80;;
18425;SDS011;9340;48.756;9.226;2023-04-25T03:41:26;4.13;;;2.40;;
18425;SDS011;9340;48.756;9.226;2023-04-25T03:43:54;3.20;;;2.80;;
18425;SDS011;9340;48.756;9.226;2023-04-25T03:46:21;2.50;;;2.30;;
18425;SDS011;9340;48.756;9.226;2023-04-25T03:48:47;7.00;;;3.10;;
18425;SDS011;9340;48.756;9.226;2023-04-25T03:51:14;2.97;;;2.70;;
18425;SDS011;9340;48.756;9.226;2023-04-25T03:53:41;3.60;;;2.83;;
18425;SDS011;9340;48.756;9.226;2023-04-25T03:56:09;2.87;;;2.67;;
18425;SDS011;9340;48.756;9.226;2023-04-25T03:58:36;3.90;;;2.60;;
18425;SDS011;9340;48.756;9.226;2023-04-25T04:01:02;2.50;;;2.30;;
18425;SDS011;9340;48.756;9.226;2023-04-25T04:03:32;3.27;;;2.57;;
18425;SDS011;9340;48.756;9.226;2023-04-25T04:05:59;2.30;;;2.10;;
18425;SDS011;9340;48.756;9.226;2023-04-25T04:08:26;3.23;;;2.40;;
18425;SDS011;9340;48.756;9.226;2023-04-25T04:10:53;3.10;;;2.37;;
18425;SDS011;9340;48.756;9.226;2023-04-25T04:13:21;4.43;;;2.50;;
18425;SDS011;9340;48.756;9.226;2023-04-25T04:15:47;3.20;;;2.60;;
18425;SDS011;9340;48.756;9.226;2023-04-25T04:18:14;2.87;;;2.60;;
18425;SDS011;9340;48.756;9.226;2023-04-25T04:20:41;2.87;;;2.50;;
18425;SDS011;9340;48.756;9.226;2023-04-25T04:23:07;2.50;;;2.27;;
18425;SDS011;9340;48.756;9.226;2023-04-25T04:25:34;3.47;;;2.30;;
18425;SDS011;9340;48.756;9.226;2023-04-25T04:28:01;3.77;;;2.73;;
18425;SDS011;9340;48.756;9.226;2023-04-25T04:30:29;3.57;;;2.90;;
18425;SDS011;9340;48.756;9.226;2023-04-25T04:32:56;3.27;;;2.97;;
18425;SDS011;9340;48.756;9.226;2023-04-25T04:35:23;3.10;;;2.80;;
18425;SDS011;9340;48.756;9.226;2023-04-25T04:37:50;4.37;;;2.53;;
18425;SDS011;9340;48.756;9.226;2023-04-25T04:40:17;2.53;;;2.33;;
18425;SDS011;9340;48.756;9.226;2023-04-25T04:42:44;3.33;;;2.50;;
18425;SDS011;9340;48.756;9.226;2023-04-25T04:45:11;5.77;;;2.97;;
18425;SDS011;9340;48.756;9.226;2023-04-25T04:47:39;3.93;;;2.83;;
18425;SDS011;9340;48.756;9.226;2023-04-25T04:50:06;3.83;;;2.60;;
18425;SDS011;9340;48.756;9.226;2023-04-25T04:52:34;3.73;;;2.90;;
18425;SDS011;9340;48.756;9.226;2023-04-25T04:55:01;2.37;;;2.17;;
18425;SDS011;9340;48.756;9.226;2023-04-25T04:57:28;3.77;;;2.27;;
18425;SDS011;9340;48.756;9.226;2023-04-25T04:59:56;2.80;;;2.60;;
18425;SDS011;9340;48.756;9.226;2023-04-25T05:02:23;2.80;;;2.20;;
18425;SDS011;9340;48.756;9.226;2023-04-25T05:04:51;2.97;;;2.60;;
18425;SDS011;9340;48.756;9.226;2023-04-25T05:07:17;4.97;;;2.70;;
18425;SDS011;9340;48.756;9.226;2023-04-25T05:09:44;3.07;;;2.77;;
18425;SDS011;9340;48.756;9.226;2023-04-25T05:12:11;3.37;;;2.50;;
18425;SDS011;9340;48.756;9.226;2023-04-25T05:14:37;3.13;;;2.33;;
18425;SDS011;9340;48.756;9.226;2023-04-25T05:17:04;4.00;;;2.60;;
18425;SDS011;9340;48.756;9.226;2023-04-25T05:19:33;6.00;;;2.87;;
18425;SDS011;9340;48.756;9.226;2023-04-25T05:22:01;2.43;;;2.23;;
18425;SDS011;9340;48.756;9.226;2023-04-25T05:24:28;2.40;;;2.20;;
18425;SDS011;9340;48.756;9.226;2023-04-25T05:26:55;3.17;;;2.57;;
18425;SDS011;9340;48.756;9.226;2023-04-25T05:29:22;5.63;;;2.60;;
18425;SDS011;9340;48.756;9.226;2023-04-25T05:31:49;2.93;;;2.50;;
18425;SDS011;9340;48.756;9.226;2023-04-25T05:34:15;4.33;;;2.67;;
18425;SDS011;9340;48.756;9.226;2023-04-25T05:36:42;4.67;;;2.97;;
18425;SDS011;9340;48.756;9.226;2023-04-25T05:39:10;2.63;;;2.37;;
18425;SDS011;9340;48.756;9.226;2023-04-25T05:41:37;4.33;;;2.97;;
18425;SDS011;9340;48.756;9.226;2023-04-25T05:44:04;4.70;;;3.10;;
18425;SDS011;9340;48.756;9.226;2023-04-25T05:46:31;2.83;;;2.57;;
18425;SDS011;9340;48.756;9.226;2023-04-25T05:48:58;3.57;;;2.70;;
18425;SDS011;9340;48.756;9.226;2023-04-25T05:51:24;3.60;;;3.07;;
18425;SDS011;9340;48.756;9.226;2023-04-25T05:53:52;2.73;;;2.53;;
18425;SDS011;9340;48.756;9.226;2023-04-25T05:56:20;3.20;;;2.90;;
18425;SDS011;9340;48.756;9.226;2023-04-25T05:58:47;3.20;;;2.80;;
18425;SDS011;9340;48.756;9.226;2023-04-25T06:01:14;3.30;;;3.00;;
18425;SDS011;9340;48.756;9.226;2023-04-25T06:03:40;3.00;;;2.80;;
18425;SDS011;9340;48.756;9.226;2023-04-25T06:06:08;2.67;;;2.47;;
18425;SDS011;9340;48.756;9.226;2023-04-25T06:08:35;5.33;;;2.87;;
18425;SDS011;9340;48.756;9.226;2023-04-25T06:11:02;4.43;;;2.93;;
18425;SDS011;9340;48.756;9.226;2023-04-25T06:13:30;4.67;;;3.77;;
18425;SDS011;9340;48.756;9.226;2023-04-25T06:15:57;3.50;;;3.20;;
18425;SDS011;9340;48.756;9.226;2023-04-25T06:18:24;3.33;;;3.03;;
18425;SDS011;9340;48.756;9.226;2023-04-25T06:20:50;3.60;;;2.93;;
18425;SDS011;9340;48.756;9.226;2023-04-25T06:23:17;3.20;;;2.93;;
18425;SDS011;9340;48.756;9.226;2023-04-25T06:25:44;3.00;;;2.67;;
18425;SDS011;9340;48.756;9.226;2023-04-25T06:28:10;3.73;;;3.00;;
18425;SDS011;9340;48.756;9.226;2023-04-25T06:30:38;2.90;;;2.40;;
18425;SDS011;9340;48.756;9.226;2023-04-25T06:33:05;2.50;;;2.30;;
18425;SDS011;9340;48.756;9.226;2023-04-25T06:35:33;3.00;;;2.70;;
18425;SDS011;9340;48.756;9.226;2023-04-25T06:38:00;2.63;;;2.43;;
18425;SDS011;9340;48.756;9.226;2023-04-25T06:40:27;2.90;;;2.57;;
18425;SDS011;9340;48.756;9.226;2023-04-25T06:42:54;3.30;;;3.00;;
18425;SDS011;9340;48.756;9.226;2023-04-25T06:45:20;3.17;;;2.57;;
18425;SDS011;9340;48.756;9.226;2023-04-25T06:47:48;2.60;;;2.40;;
18425;SDS011;9340;48.756;9.226;2023-04-25T06:50:15;2.40;;;2.20;;
18425;SDS011;9340;48.756;9.226;2023-04-25T06:52:42;2.43;;;2.23;;
18425;SDS011;9340;48.756;9.226;2023-04-25T06:55:09;2.87;;;2.57;;
18425;SDS011;9340;48.756;9.226;2023-04-25T06:57:35;3.00;;;2.70;;
18425;SDS011;9340;48.756;9.226;2023-04-25T07:00:02;2.60;;;2.40;;
18425;SDS011;9340;48.756;9.226;2023-04-25T07:02:34;3.20;;;2.43;;
18425;SDS011;9340;48.756;9.226;2023-04-25T07:05:02;2.30;;;2.10;;
18425;SDS011;9340;48.756;9.226;2023-04-25T07:07:29;3.83;;;2.60;;
18425;SDS011;9340;48.756;9.226;2023-04-25T07:09:55;3.13;;;2.83;;
18425;SDS011;9340;48.756;9.226;2023-04-25T07:12:22;2.53;;;2.33;;
18425;SDS011;9340;48.756;9.226;2023-04-25T07:14:49;4.83;;;2.70;;
18425;SDS011;9340;48.756;9.226;2023-04-25T07:17:15;3.00;;;2.80;;
18425;SDS011;9340;48.756;9.226;2023-04-25T07:19:42;3.00;;;2.80;;
18425;SDS011;9340;48.756;9.226;2023-04-25T07:22:11;2.83;;;2.63;;
18425;SDS011;9340;48.756;9.226;2023-04-25T07:24:37;2.90;;;2.70;;
18425;SDS011;9340;48.756;9.226;2023-04-25T07:27:04;2.77;;;2.57;;
18425;SDS011;9340;48.756;9.226;2023-04-25T07:29:32;2.83;;;2.63;;
18425;SDS011;9340;48.756;9.226;2023-04-25T07:32:02;2.80;;;2.60;;
18425;SDS011;9340;48.756;9.226;2023-04-25T07:34:29;2.67;;;2.47;;
18425;SDS011;9340;48.756;9.226;2023-04-25T07:36:56;3.40;;;2.93;;
18425;SDS011;9340;48.756;9.226;2023-04-25T07:39:25;3.40;;;2.60;;
18425;SDS011;9340;48.756;9.226;2023-04-25T07:41:52;3.07;;;2.87;;
18425;SDS011;9340;48.756;9.226;2023-04-25T07:44:19;3.00;;;2.80;;
18425;SDS011;9340;48.756;9.226;2023-04-25T07:46:46;3.10;;;2.80;;
18425;SDS011;9340;48.756;9.226;2023-04-25T07:49:13;3.03;;;2.70;;
18425;SDS011;9340;48.756;9.226;2023-04-25T07:51:39;3.30;;;3.00;;
18425;SDS011;9340;48.756;9.226;2023-04-25T07:54:08;3.43;;;3.13;;
18425;SDS011;9340;48.756;9.226;2023-04-25T07:56:36;3.67;;;3.40;;
18425;SDS011;9340;48.756;9.226;2023-04-25T07:59:03;3.50;;;3.20;;
18425;SDS011;9340;48.756;9.226;2023-04-25T08:01:30;3.70;;;3.07;;
18425;SDS011;9340;48.756;9.226;2023-04-25T08:03:57;3.73;;;3.23;;
18425;SDS011;9340;48.756;9.226;2023-04-25T08:06:23;3.33;;;3.13;;
18425;SDS011;9340;48.756;9.226;2023-04-25T08:08:50;4.07;;;3.57;;
18425;SDS011;9340;48.756;9.226;2023-04-25T08:11:17;4.00;;;3.70;;
18425;SDS011;9340;48.756;9.226;2023-04-25T08:13:44;4.13;;;3.73;;
18425;SDS011;9340;48.756;9.226;2023-04-25T08:16:11;4.07;;;3.77;;
18425;SDS011;9340;48.756;9.226;2023-04-25T08:18:38;4.50;;;4.10;;
18425;SDS011;9340;48.756;9.226;2023-04-25T08:21:04;3.90;;;3.60;;
18425;SDS011;9340;48.756;9.226;2023-04-25T08:23:33;5.20;;;4.13;;
18425;SDS011;9340;48.756;9.226;2023-04-25T08:26:00;4.07;;;3.70;;
18425;SDS011;9340;48.756;9.226;2023-04-25T08:28:27;3.97;;;3.67;;
18425;SDS011;9340;48.756;9.226;2023-04-25T08:30:55;4.43;;;3.53;;
18425;SDS011;9340;48.756;9.226;2023-04-25T08:33:22;4.60;;;4.20;;
18425;SDS011;9340;48.756;9.226;2023-04-25T08:35:49;4.50;;;4.10;;
18425;SDS011;9340;48.756;9.226;2023-04-25T08:38:16;4.00;;;3.60;;
18425;SDS011;9340;48.756;9.226;2023-04-25T08:40:44;4.40;;;4.00;;
18425;SDS011;9340;48.756;9.226;2023-04-25T08:43:16;4.20;;;3.37;;
18425;SDS011;9340;48.756;9.226;2023-04-25T08:45:45;4.33;;;3.93;;
18425;SDS011;9340;48.756;9.226;2023-04-25T08:48:15;3.93;;;3.63;;
18425;SDS011;9340;48.756;9.226;2023-04-25T08:50:44;4.83;;;4.40;;
18425;SDS011;9340;48.756;9.226;2023-04-25T08:53:16;4.40;;;4.00;;
18425;SDS011;9340;48.756;9.226;2023-04-25T08:55:45;5.73;;;5.13;;
18425;SDS011;9340;48.756;9.226;2023-04-25T08:58:13;4.70;;;4.30;;
18425;SDS011;9340;48.756;9.226;2023-04-25T09:00:41;4.87;;;4.40;;
18425;SDS011;9340;48.756;9.226;2023-04-25T09:03:07;4.40;;;4.07;;
18425;SDS011;9340;48.756;9.226;2023-04-25T09:05:35;3.80;;;3.50;;
18425;SDS011;9340;48.756;9.226;2023-04-25T09:08:02;6.67;;;4.90;;
18425;SDS011;9340;48.756;9.226;2023-04-25T09:10:29;6.77;;;4.33;;
18425;SDS011;9340;48.756;9.226;2023-04-25T09:13:01;5.00;;;4.57;;
18425;SDS011;9340;48.756;9.226;2023-04-25T09:15:29;5.43;;;4.67;;
18425;SDS011;9340;48.756;9.226;2023-04-25T09:17:56;4.47;;;4.07;;
18425;SDS011;9340;48.756;9.226;2023-04-25T09:20:23;5.13;;;4.63;;
18425;SDS011;9340;48.756;9.226;2023-04-25T09:23:02;4.90;;;4.50;;
18425;SDS011;9340;48.756;9.226;2023-04-25T09:25:33;4.80;;;4.40;;
18425;SDS011;9340;48.756;9.226;2023-04-25T09:28:03;6.43;;;5.87;;
18425;SDS011;9340;48.756;9.226;2023-04-25T09:30:31;5.60;;;4.97;;
18425;SDS011;9340;48.756;9.226;2023-04-25T09:33:03;5.20;;;4.80;;
18425;SDS011;9340;48.756;9.226;2023-04-25T09:35:35;4.77;;;4.37;;
18425;SDS011;9340;48.756;9.226;2023-04-25T09:38:08;5.33;;;4.93;;
18425;SDS011;9340;48.756;9.226;2023-04-25T09:40:38;5.60;;;5.10;;
18425;SDS011;9340;48.756;9.226;2023-04-25T09:43:08;5.03;;;4.63;;
18425;SDS011;9340;48.756;9.226;2023-04-25T09:45:40;4.90;;;4.33;;
18425;SDS011;9340;48.756;9.226;2023-04-25T09:48:10;5.53;;;5.05;;
18425;SDS011;9340;48.756;9.226;2023-04-25T09:50:37;5.23;;;4.73;;
18425;SDS011;9340;48.756;9.226;2023-04-25T09:53:04;4.87;;;4.43;;
18425;SDS011;9340;48.756;9.226;2023-04-25T09:55:33;5.37;;;4.83;;
18425;SDS011;9340;48.756;9.226;2023-04-25T09:58:05;6.57;;;4.60;;
18425;SDS011;9340;48.756;9.226;2023-04-25T10:00:32;3.83;;;3.40;;
18425;SDS011;9340;48.756;9.226;2023-04-25T10:03:00;3.13;;;2.83;;
18425;SDS011;9340;48.756;9.226;2023-04-25T10:05:30;4.13;;;3.43;;
18425;SDS011;9340;48.756;9.226;2023-04-25T10:08:01;3.53;;;3.30;;
18425;SDS011;9340;48.756;9.226;2023-04-25T10:10:28;3.67;;;3.37;;
18425;SDS011;9340;48.756;9.226;2023-04-25T10:13:02;3.70;;;3.40;;
18425;SDS011;9340;48.756;9.226;2023-04-25T10:15:30;3.50;;;3.30;;
18425;SDS011;9340;48.756;9.226;2023-04-25T10:17:57;3.00;;;2.80;;
18425;SDS011;9340;48.756;9.226;2023-04-25T10:20:25;3.80;;;3.20;;
18425;SDS011;9340;48.756;9.226;2023-04-25T10:22:52;4.37;;;3.30;;
18425;SDS011;9340;48.756;9.226;2023-04-25T10:25:22;3.60;;;2.60;;
18425;SDS011;9340;48.756;9.226;2023-04-25T10:27:49;1.77;;;1.67;;
18425;SDS011;9340;48.756;9.226;2023-04-25T10:30:18;2.40;;;2.20;;
18425;SDS011;9340;48.756;9.226;2023-04-25T10:32:45;3.33;;;2.50;;
18425;SDS011;9340;48.756;9.226;2023-04-25T10:35:16;1.97;;;1.80;;
18425;SDS011;9340;48.756;9.226;2023-04-25T10:37:56;2.07;;;1.93;;
18425;SDS011;9340;48.756;9.226;2023-04-25T10:40:24;1.60;;;1.50;;
18425;SDS011;9340;48.756;9.226;2023-04-25T10:42:51;1.47;;;1.37;;
18425;SDS011;9340;48.756;9.226;2023-04-25T10:45:20;1.73;;;1.63;;
18425;SDS011;9340;48.756;9.226;2023-04-25T10:47:47;2.10;;;1.80;;
18425;SDS011;9340;48.756;9.226;2023-04-25T10:50:14;2.47;;;2.27;;
18425;SDS011;9340;48.756;9.226;2023-04-25T10:52:41;2.90;;;2.70;;
18425;SDS011;9340;48.756;9.226;2023-04-25T10:55:08;3.53;;;3.23;;
18425;SDS011;9340;48.756;9.226;2023-04-25T10:57:38;3.20;;;2.87;;
18425;SDS011;9340;48.756;9.226;2023-04-25T11:00:08;2.97;;;2.33;;
18425;SDS011;9340;48.756;9.226;2023-04-25T11:02:38;2.60;;;2.40;;
18425;SDS011;9340;48.756;9.226;2023-04-25T11:05:07;2.60;;;2.40;;
18425;SDS011;9340;48.756;9.226;2023-04-25T11:07:37;4.10;;;3.80;;
18425;SDS011;9340;48.756;9.226;2023-04-25T11:10:09;4.03;;;3.73;;
18425;SDS011;9340;48.756;9.226;2023-04-25T11:12:36;3.87;;;3.57;;
18425;SDS011;9340;48.756;9.226;2023-04-25T11:15:03;4.00;;;3.60;;
18425;SDS011;9340;48.756;9.226;2023-04-25T11:17:31;3.33;;;3.03;;
18425;SDS011;9340;48.756;9.226;2023-04-25T11:20:00;3.60;;;3.30;;
18425;SDS011;9340;48.756;9.226;2023-04-25T11:22:27;3.83;;;2.70;;
18425;SDS011;9340;48.756;9.226;2023-04-25T11:24:54;3.17;;;2.33;;
18425;SDS011;9340;48.756;9.226;2023-04-25T11:27:21;2.13;;;2.03;;
18425;SDS011;9340;48.756;9.226;2023-04-25T11:29:49;3.33;;;2.30;;
18425;SDS011;9340;48.756;9.226;2023-04-25T11:32:17;4.07;;;2.70;;
18425;SDS011;9340;48.756;9.226;2023-04-25T11:34:44;2.73;;;2.50;;
18425;SDS011;9340;48.756;9.226;2023-04-25T11:37:12;3.20;;;3.00;;
18425;SDS011;9340;48.756;9.226;2023-04-25T11:39:42;3.07;;;2.50;;
18425;SDS011;9340;48.756;9.226;2023-04-25T11:42:11;2.57;;;2.37;;
18425;SDS011;9340;48.756;9.226;2023-04-25T11:44:37;3.20;;;2.30;;
18425;SDS011;9340;48.756;9.226;2023-04-25T11:47:05;2.60;;;2.40;;
18425;SDS011;9340;48.756;9.226;2023-04-25T11:49:32;2.73;;;2.53;;
18425;SDS011;9340;48.756;9.226;2023-04-25T11:52:00;5.07;;;4.67;;
18425;SDS011;9340;48.756;9.226;2023-04-25T11:54:28;3.23;;;2.80;;
18425;SDS011;9340;48.756;9.226;2023-04-25T11:56:55;2.53;;;2.33;;
18425;SDS011;9340;48.756;9.226;2023-04-25T11:59:23;3.37;;;2.67;;
18425;SDS011;9340;48.756;9.226;2023-04-25T12:01:51;2.50;;;2.30;;
18425;SDS011;9340;48.756;9.226;2023-04-25T12:04:18;2.57;;;2.37;;
18425;SDS011;9340;48.756;9.226;2023-04-25T12:06:46;2.87;;;2.60;;
18425;SDS011;9340;48.756;9.226;2023-04-25T12:09:15;2.90;;;2.60;;
18425;SDS011;9340;48.756;9.226;2023-04-25T12:11:45;2.93;;;2.73;;
18425;SDS011;9340;48.756;9.226;2023-04-25T12:14:19;2.90;;;2.70;;
18425;SDS011;9340;48.756;9.226;2023-04-25T12:16:48;2.90;;;2.70;;
18425;SDS011;9340;48.756;9.226;2023-04-25T12:19:16;3.83;;;3.53;;
18425;SDS011;9340;48.756;9.226;2023-04-25T12:21:44;4.20;;;3.50;;
18425;SDS011;9340;48.756;9.226;2023-04-25T12:24:11;4.53;;;4.13;;
18425;SDS011;9340;48.756;9.226;2023-04-25T12:26:51;4.43;;;4.03;;
18425;SDS011;9340;48.756;9.226;2023-04-25T12:29:20;7.03;;;4.17;;
18425;SDS011;9340;48.756;9.226;2023-04-25T12:31:49;5.07;;;4.67;;
18425;SDS011;9340;48.756;9.226;2023-04-25T12:34:17;4.13;;;3.80;;
18425;SDS011;9340;48.756;9.226;2023-04-25T12:36:43;3.90;;;3.60;;
18425;SDS011;9340;48.756;9.226;2023-04-25T12:39:16;3.90;;;3.53;;
18425;SDS011;9340;48.756;9.226;2023-04-25T12:41:44;4.70;;;3.90;;
18425;SDS011;9340;48.756;9.226;2023-04-25T12:44:12;4.50;;;4.10;;
18425;SDS011;9340;48.756;9.226;2023-04-25T12:46:39;4.80;;;4.40;;
18425;SDS011;9340;48.756;9.226;2023-04-25T12:49:07;4.13;;;3.80;;
18425;SDS011;9340;48.756;9.226;2023-04-25T12:51:34;4.87;;;4.43;;
18425;SDS011;9340;48.756;9.226;2023-04-25T12:54:01;4.70;;;4.28;;
18425;SDS011;9340;48.756;9.226;2023-04-25T12:56:29;4.75;;;4.35;;
18425;SDS011;9340;48.756;9.226;2023-04-25T12:58:56;5.20;;;4.70;;
18425;SDS011;9340;48.756;9.226;2023-04-25T13:01:24;5.32;;;4.80;;
18425;SDS011;9340;48.756;9.226;2023-04-25T13:03:51;5.83;;;5.03;;
18425;SDS011;9340;48.756;9.226;2023-04-25T13:06:19;4.60;;;4.20;;
18425;SDS011;9340;48.756;9.226;2023-04-25T13:08:46;5.50;;;5.00;;
18425;SDS011;9340;48.756;9.226;2023-04-25T13:11:12;4.80;;;4.30;;
18425;SDS011;9340;48.756;9.226;2023-04-25T13:13:40;4.70;;;4.30;;
18425;SDS011;9340;48.756;9.226;2023-04-25T13:16:07;5.33;;;4.23;;
18425;SDS011;9340;48.756;9.226;2023-04-25T13:18:36;5.40;;;4.83;;
18425;SDS011;9340;48.756;9.226;2023-04-25T13:21:02;5.37;;;4.63;;
18425;SDS011;9340;48.756;9.226;2023-04-25T13:23:29;4.67;;;4.27;;
18425;SDS011;9340;48.756;9.226;2023-04-25T13:25:56;4.70;;;4.30;;
18425;SDS011;9340;48.756;9.226;2023-04-25T13:28:23;4.20;;;3.90;;
18425;SDS011;9340;48.756;9.226;2023-04-25T13:30:50;5.00;;;4.60;;
18425;SDS011;9340;48.756;9.226;2023-04-25T13:33:17;4.60;;;4.20;;
18425;SDS011;9340;48.756;9.226;2023-04-25T13:35:45;4.83;;;4.30;;
18425;SDS011;9340;48.756;9.226;2023-04-25T13:38:18;4.80;;;4.47;;
18425;SDS011;9340;48.756;9.226;2023-04-25T13:40:45;4.87;;;4.47;;
18425;SDS011;9340;48.756;9.226;2023-04-25T13:43:12;5.23;;;4.73;;
18425;SDS011;9340;48.756;9.226;2023-04-25T13:45:39;4.83;;;4.43;;
18425;SDS011;9340;48.756;9.226;2023-04-25T13:48:05;5.00;;;4.50;;
18425;SDS011;9340;48.756;9.226;2023-04-25T13:50:32;5.63;;;5.13;;
18425;SDS011;9340;48.756;9.226;2023-04-25T13:53:00;6.00;;;5.50;;
18425;SDS011;9340;48.756;9.226;2023-04-25T13:55:27;5.73;;;5.03;;
18425;SDS011;9340;48.756;9.226;2023-04-25T13:57:54;5.53;;;5.03;;
18425;SDS011;9340;48.756;9.226;2023-04-25T14:00:20;7.37;;;5.40;;
18425;SDS011;9340;48.756;9.226;2023-04-25T14:02:47;5.87;;;5.33;;
18425;SDS011;9340;48.756;9.226;2023-04-25T14:05:14;6.50;;;5.53;;
18425;SDS011;9340;48.756;9.226;2023-04-25T14:07:41;6.20;;;5.60;;
18425;SDS011;9340;48.756;9.226;2023-04-25T14:10:09;6.00;;;5.50;;
18425;SDS011;9340;48.756;9.226;2023-04-25T14:12:36;6.33;;;5.73;;
18425;SDS011;9340;48.756;9.226;2023-04-25T14:15:03;6.87;;;5.43;;
18425;SDS011;9340;48.756;9.226;2023-04-25T14:17:30;6.43;;;5.83;;
18425;SDS011;9340;48.756;9.226;2023-04-25T14:19:57;8.03;;;6.03;;
18425;SDS011;9340;48.756;9.226;2023-04-25T14:22:23;7.13;;;6.50;;
18425;SDS011;9340;48.756;9.226;2023-04-25T14:24:50;7.13;;;6.43;;
18425;SDS011;9340;48.756;9.226;2023-04-25T14:27:18;7.80;;;6.60;;
18425;SDS011;9340;48.756;9.226;2023-04-25T14:29:45;7.20;;;6.60;;
18425;SDS011;9340;48.756;9.226;2023-04-25T14:32:12;7.00;;;6.40;;
18425;SDS011;9340;48.756;9.226;2023-04-25T14:34:39;6.77;;;6.17;;
18425;SDS011;9340;48.756;9.226;2023-04-25T14:37:06;6.83;;;6.13;;
18425;SDS011;9340;48.756;9.226;2023-04-25T14:39:32;6.70;;;5.93;;
18425;SDS011;9340;48.756;9.226;2023-04-25T14:41:59;5.73;;;5.23;;
18425;SDS011;9340;48.756;9.226;2023-04-25T14:44:27;6.50;;;5.90;;
18425;SDS011;9340;48.756;9.226;2023-04-25T14:46:54;5.57;;;5.10;;
18425;SDS011;9340;48.756;9.226;2023-04-25T14:49:21;6.60;;;6.00;;
18425;SDS011;9340;48.756;9.226;2023-04-25T14:51:48;5.97;;;5.37;;
18425;SDS011;9340;48.756;9.226;2023-04-25T14:54:16;6.10;;;5.50;;
18425;SDS011;9340;48.756;9.226;2023-04-25T14:56:43;5.73;;;5.23;;
18425;SDS011;9340;48.756;9.226;2023-04-25T14:59:09;7.23;;;6.50;;
18425;SDS011;9340;48.756;9.226;2023-04-25T15:01:37;6.37;;;5.77;;